createdAt,value
2018-03-26T00:02:16.539Z,61.52
2018-03-26T00:04:44.058Z,61.63
2018-03-26T00:07:11.616Z,61.93
2018-03-26T00:09:39.165Z,61.82
2018-03-26T00:12:06.692Z,61.66
2018-03-26T00:14:34.248Z,61.25
2018-03-26T00:17:01.780Z,61.62
2018-03-26T00:19:29.310Z,61.71
2018-03-26T00:21:56.836Z,61.31
2018-03-26T00:24:24.358Z,62.29
2018-03-26T00:26:51.878Z,62.21
2018-03-26T00:29:19.410Z,62.02
2018-03-26T00:31:46.935Z,61.57
2018-03-26T00:34:14.465Z,61.98
2018-03-26T00:36:41.995Z,61.83
2018-03-26T00:39:09.524Z,62.30
2018-03-26T00:41:37.070Z,62.08
2018-03-26T00:44:04.598Z,62.24
2018-03-26T00:46:32.127Z,62.44
2018-03-26T00:48:59.653Z,62.26
2018-03-26T00:51:27.193Z,62.48
2018-03-26T00:53:54.713Z,62.30
2018-03-26T00:56:22.224Z,62.44
2018-03-26T00:58:49.760Z,62.36
2018-03-26T01:01:17.283Z,62.41
2018-03-26T01:03:44.815Z,62.09
2018-03-26T01:06:12.352Z,62.06
2018-03-26T01:08:39.875Z,61.97
2018-03-26T01:11:07.450Z,62.00
2018-03-26T01:13:34.977Z,62.00
2018-03-26T01:16:02.510Z,62.22
2018-03-26T01:18:30.035Z,62.14
2018-03-26T01:20:57.555Z,62.37
2018-03-26T01:23:25.069Z,62.07
2018-03-26T01:25:52.622Z,62.54
2018-03-26T01:28:20.154Z,62.36
2018-03-26T01:30:47.666Z,62.30
2018-03-26T01:33:15.203Z,62.75
2018-03-26T01:35:42.735Z,62.38
2018-03-26T01:38:10.272Z,62.68
2018-03-26T01:40:37.803Z,62.46
2018-03-26T01:43:05.334Z,62.75
2018-03-26T01:45:32.880Z,62.32
2018-03-26T01:48:00.413Z,62.13
2018-03-26T01:50:27.938Z,62.32
2018-03-26T01:52:55.469Z,62.29
2018-03-26T01:55:23.008Z,62.08
2018-03-26T01:57:50.546Z,62.10
2018-03-26T02:00:18.091Z,62.18
2018-03-26T02:02:45.634Z,62.79
2018-03-26T02:05:13.154Z,63.20
2018-03-26T02:07:40.683Z,62.82
2018-03-26T02:10:08.202Z,62.36
2018-03-26T02:12:35.771Z,62.38
2018-03-26T02:15:03.331Z,62.51
2018-03-26T02:17:30.870Z,62.71
2018-03-26T02:19:58.402Z,62.78
2018-03-26T02:22:25.945Z,63.22
2018-03-26T02:24:53.474Z,63.17
2018-03-26T02:27:21.009Z,62.54
2018-03-26T02:29:48.592Z,63.28
2018-03-26T02:32:16.128Z,63.54
2018-03-26T02:34:43.662Z,62.82
2018-03-26T02:37:11.198Z,62.90
2018-03-26T02:39:38.714Z,63.13
2018-03-26T02:42:06.237Z,63.02
2018-03-26T02:44:33.798Z,62.88
2018-03-26T02:47:01.350Z,63.07
2018-03-26T02:49:28.883Z,63.14
2018-03-26T02:51:56.404Z,62.56
2018-03-26T02:54:23.947Z,62.81
2018-03-26T02:56:51.460Z,63.43
2018-03-26T02:59:19.001Z,63.12
2018-03-26T03:01:46.540Z,63.04
2018-03-26T03:04:14.088Z,63.09
2018-03-26T03:06:41.618Z,62.79
2018-03-26T03:09:09.168Z,62.41
2018-03-26T03:11:36.697Z,63.12
2018-03-26T03:14:04.212Z,63.04
2018-03-26T03:16:31.750Z,63.51
2018-03-26T03:18:59.292Z,63.60
2018-03-26T03:21:26.813Z,63.00
2018-03-26T03:23:54.361Z,63.56
2018-03-26T03:26:21.882Z,63.32
2018-03-26T03:28:49.481Z,62.79
2018-03-26T03:31:17.013Z,63.83
2018-03-26T03:33:44.549Z,63.41
2018-03-26T03:36:12.071Z,63.13
2018-03-26T03:38:39.618Z,63.06
2018-03-26T03:41:07.145Z,63.04
2018-03-26T03:43:34.670Z,63.18
2018-03-26T03:46:02.204Z,62.94
2018-03-26T03:48:29.723Z,63.12
2018-03-26T03:50:57.303Z,62.99
2018-03-26T03:53:24.809Z,63.13
2018-03-26T03:55:52.368Z,63.12
2018-03-26T03:58:19.902Z,62.98
2018-03-26T04:00:47.421Z,63.46
2018-03-26T04:03:14.947Z,63.67
2018-03-26T04:05:42.501Z,64.09
2018-03-26T04:08:10.025Z,64.70
2018-03-26T04:10:37.544Z,64.02
2018-03-26T04:13:05.074Z,64.02
2018-03-26T04:15:32.606Z,64.01
2018-03-26T04:18:00.136Z,63.93
2018-03-26T04:20:27.664Z,63.77
2018-03-26T04:22:55.236Z,64.04
2018-03-26T04:25:22.815Z,64.13
2018-03-26T04:27:50.341Z,64.27
2018-03-26T04:30:17.918Z,64.36
2018-03-26T04:32:45.451Z,64.27
2018-03-26T04:35:12.980Z,64.17
2018-03-26T04:37:40.511Z,64.02
2018-03-26T04:40:08.030Z,64.13
2018-03-26T04:42:35.554Z,64.39
2018-03-26T04:45:03.104Z,64.04
2018-03-26T04:47:30.709Z,64.36
2018-03-26T04:49:58.249Z,64.21
2018-03-26T04:52:25.766Z,64.17
2018-03-26T04:54:53.290Z,64.21
2018-03-26T04:57:20.820Z,64.91
2018-03-26T04:59:48.368Z,64.77
2018-03-26T05:02:15.927Z,65.43
2018-03-26T05:04:43.426Z,65.73
2018-03-26T05:07:10.962Z,65.50
2018-03-26T05:09:38.486Z,66.82
2018-03-26T05:12:06.025Z,66.08
2018-03-26T05:14:33.536Z,65.73
2018-03-26T05:17:01.067Z,65.50
2018-03-26T05:19:28.607Z,65.57
2018-03-26T06:43:53.097Z,65.91
2018-03-26T06:46:20.610Z,66.29
2018-03-26T06:48:48.125Z,66.65
2018-03-26T06:51:15.638Z,67.38
2018-03-26T06:53:43.318Z,66.44
2018-03-26T06:56:10.841Z,65.76
2018-03-26T06:58:38.402Z,65.90
2018-03-26T07:01:05.926Z,66.92
2018-03-26T07:03:33.454Z,66.85
2018-03-26T07:06:00.977Z,66.66
2018-03-26T07:08:28.511Z,67.09
2018-03-26T07:10:56.031Z,66.67
2018-03-26T07:13:23.549Z,66.44
2018-03-26T07:15:51.083Z,67.18
2018-03-26T07:18:18.610Z,66.67
2018-03-26T07:20:46.135Z,67.03
2018-03-26T07:23:13.654Z,65.84
2018-03-26T07:25:41.170Z,65.73
2018-03-26T07:28:08.720Z,65.85
2018-03-26T07:30:36.273Z,65.29
2018-03-26T07:33:03.792Z,64.69
2018-03-26T07:35:31.333Z,64.76
2018-03-26T07:37:58.858Z,64.89
2018-03-26T07:40:26.401Z,65.57
2018-03-26T07:42:53.925Z,65.36
2018-03-26T07:45:21.449Z,64.55
2018-03-26T07:47:48.979Z,63.85
2018-03-26T07:50:16.504Z,63.24
2018-03-26T07:52:44.041Z,63.84
2018-03-26T07:55:11.569Z,63.92
2018-03-26T07:57:39.087Z,63.02
2018-03-26T08:00:06.618Z,63.71
2018-03-26T08:02:34.145Z,63.98
2018-03-26T08:05:01.662Z,63.99
2018-03-26T08:07:29.195Z,64.29
2018-03-26T08:09:56.778Z,64.32
2018-03-26T08:12:24.266Z,63.95
2018-03-26T08:14:51.808Z,62.79
2018-03-26T08:17:19.374Z,63.74
2018-03-26T08:19:46.880Z,64.11
2018-03-26T08:22:14.392Z,64.70
2018-03-26T08:24:41.913Z,65.25
2018-03-26T08:27:09.445Z,64.80
2018-03-26T08:29:36.958Z,64.58
2018-03-26T08:32:04.475Z,64.32
2018-03-26T08:34:31.997Z,64.35
2018-03-26T08:36:59.540Z,64.34
2018-03-26T08:39:27.066Z,64.52
2018-03-26T08:41:54.583Z,64.99
2018-03-26T08:44:22.111Z,64.78
2018-03-26T08:46:49.640Z,63.96
2018-03-26T08:49:17.178Z,65.01
2018-03-26T08:51:44.696Z,65.33
2018-03-26T08:54:12.223Z,65.69
2018-03-26T08:56:39.754Z,65.11
2018-03-26T08:59:07.280Z,65.38
2018-03-26T09:01:34.819Z,65.89
2018-03-26T09:04:02.370Z,66.08
2018-03-26T09:06:29.889Z,65.82
2018-03-26T09:08:57.418Z,64.83
2018-03-26T09:11:24.940Z,65.40
2018-03-26T09:13:52.466Z,66.12
2018-03-26T09:16:19.988Z,65.30
2018-03-26T09:18:47.521Z,65.33
2018-03-26T09:21:15.058Z,65.35
2018-03-26T09:23:42.734Z,65.40
2018-03-26T09:26:10.262Z,65.72
2018-03-26T09:28:37.791Z,65.62
2018-03-26T09:31:05.364Z,66.31
2018-03-26T09:33:32.896Z,66.24
2018-03-26T09:36:00.538Z,65.94
2018-03-26T09:38:28.063Z,66.32
2018-03-26T09:40:55.591Z,66.60
2018-03-26T09:43:23.110Z,66.85
2018-03-26T09:45:50.633Z,65.82
2018-03-26T09:48:18.168Z,66.85
2018-03-26T09:50:45.695Z,66.04
2018-03-26T09:53:13.259Z,66.40
2018-03-26T09:55:40.770Z,65.38
2018-03-26T09:58:08.337Z,66.85
2018-03-26T10:00:41.534Z,67.09
2018-03-26T10:03:09.053Z,66.79
2018-03-26T10:05:36.566Z,66.29
2018-03-26T10:08:04.163Z,66.41
2018-03-26T10:10:31.706Z,66.48
2018-03-26T10:12:59.261Z,66.96
2018-03-26T10:15:26.818Z,67.82
2018-03-26T10:17:54.341Z,69.33
2018-03-26T10:20:21.869Z,69.32
2018-03-26T10:22:49.399Z,69.15
2018-03-26T10:25:16.971Z,70.49
2018-03-26T10:27:45.274Z,70.35
2018-03-26T10:30:12.795Z,70.43
2018-03-26T10:32:40.326Z,70.94
2018-03-26T10:35:07.855Z,71.17
2018-03-26T10:37:35.370Z,70.97
2018-03-26T10:40:02.899Z,70.96
2018-03-26T10:42:30.436Z,72.22
2018-03-26T10:44:57.955Z,70.77
2018-03-26T10:47:25.535Z,69.87
2018-03-26T10:49:53.066Z,71.14
2018-03-26T10:52:20.598Z,70.84
2018-03-26T10:54:48.139Z,71.59
2018-03-26T10:57:15.675Z,71.96
2018-03-26T10:59:43.210Z,72.31
2018-03-26T11:02:10.725Z,72.59
2018-03-26T11:04:38.245Z,73.11
2018-03-26T11:07:05.764Z,74.30
2018-03-26T11:09:33.285Z,76.40
2018-03-26T11:12:00.807Z,77.01
2018-03-26T12:36:25.326Z,78.04
2018-03-26T12:38:52.858Z,78.23
2018-03-26T12:41:20.404Z,78.38
2018-03-26T12:43:47.943Z,78.02
2018-03-26T12:46:27.252Z,77.32
2018-03-26T12:48:54.772Z,77.24
2018-03-26T12:51:34.184Z,76.84
2018-03-26T12:54:01.734Z,76.61
2018-03-26T12:56:29.264Z,77.05
2018-03-26T12:58:56.786Z,76.20
2018-03-26T13:01:36.087Z,75.32
2018-03-26T13:04:03.618Z,74.85
2018-03-26T13:06:31.138Z,74.03
2018-03-26T13:08:58.665Z,73.28
2018-03-26T13:11:26.195Z,72.88
2018-03-26T13:13:53.715Z,71.78
2018-03-26T13:16:21.241Z,71.54
2018-03-26T13:18:48.762Z,71.18
2018-03-26T13:21:16.285Z,70.17
2018-03-26T13:23:43.828Z,70.01
2018-03-26T13:26:11.378Z,69.82
2018-03-26T13:28:38.905Z,69.16
2018-03-26T13:31:06.421Z,69.58
2018-03-26T13:33:33.961Z,69.75
2018-03-26T13:36:01.491Z,69.45
2018-03-26T13:38:29.043Z,69.15
2018-03-26T13:40:56.592Z,68.71
2018-03-26T13:43:24.123Z,68.88
2018-03-26T13:45:51.652Z,68.73
2018-03-26T13:48:19.187Z,68.61
2018-03-26T13:50:46.745Z,67.89
2018-03-26T13:53:14.262Z,67.74
2018-03-26T13:55:41.784Z,66.91
2018-03-26T13:58:09.323Z,67.11
2018-03-26T14:00:36.844Z,67.65
2018-03-26T14:03:04.368Z,67.59
2018-03-26T14:05:31.885Z,67.39
2018-03-26T14:07:59.409Z,66.16
2018-03-26T14:10:38.658Z,65.81
2018-03-26T14:13:18.078Z,65.81
2018-03-26T14:15:57.537Z,65.96
2018-03-26T14:18:25.107Z,65.59
2018-03-26T14:20:52.620Z,65.46
2018-03-26T14:23:20.178Z,64.93
2018-03-26T14:25:47.708Z,64.02
2018-03-26T14:28:15.221Z,63.24
2018-03-26T14:30:42.755Z,63.17
2018-03-26T14:33:10.288Z,62.72
2018-03-26T14:35:44.937Z,62.78
2018-03-26T14:38:12.785Z,62.04
2018-03-26T14:40:40.333Z,62.57
2018-03-26T14:43:07.906Z,62.18
2018-03-26T14:45:35.404Z,62.04
2018-03-26T14:48:02.940Z,62.21
2018-03-26T14:50:30.472Z,62.20
2018-03-26T14:52:57.989Z,62.34
2018-03-26T14:55:25.577Z,61.96
2018-03-26T14:57:53.085Z,61.92
2018-03-26T15:00:20.613Z,62.44
2018-03-26T15:02:48.156Z,62.03
2018-03-26T15:05:15.686Z,61.69
2018-03-26T15:07:43.231Z,61.17
2018-03-26T15:10:10.747Z,60.80
2018-03-26T15:12:38.268Z,60.79
2018-03-26T15:15:05.800Z,60.54
2018-03-26T15:17:33.322Z,60.36
2018-03-26T15:20:00.854Z,59.50
2018-03-26T15:22:28.398Z,59.49
2018-03-26T15:24:55.937Z,58.97
2018-03-26T15:27:23.539Z,58.79
2018-03-26T15:29:51.025Z,57.71
2018-03-26T15:32:18.551Z,57.89
2018-03-26T15:34:46.099Z,58.15
2018-03-26T15:37:13.632Z,58.05
2018-03-26T15:39:41.161Z,58.26
2018-03-26T15:42:08.684Z,57.92
2018-03-26T15:44:36.217Z,58.21
2018-03-26T15:47:03.737Z,58.20
2018-03-26T15:49:31.258Z,58.44
2018-03-26T15:51:58.787Z,58.66
2018-03-26T15:54:26.309Z,58.59
2018-03-26T15:56:53.837Z,58.80
2018-03-26T15:59:21.368Z,58.63
2018-03-26T16:01:48.889Z,58.32
2018-03-26T16:04:16.414Z,58.50
2018-03-26T16:06:43.946Z,58.37
2018-03-26T16:09:11.469Z,58.21
2018-03-26T16:11:38.985Z,58.77
2018-03-26T16:14:06.505Z,58.88
2018-03-26T16:16:34.034Z,59.01
2018-03-26T16:19:01.594Z,59.38
2018-03-26T16:21:29.113Z,59.67
2018-03-26T16:23:56.663Z,59.71
2018-03-26T16:26:24.173Z,59.72
2018-03-26T16:28:51.697Z,59.86
2018-03-26T16:31:19.217Z,60.45
2018-03-26T16:33:46.819Z,60.94
2018-03-26T16:36:14.356Z,61.55
2018-03-26T16:38:41.881Z,62.37
2018-03-26T16:41:09.413Z,63.65
2018-03-26T16:43:36.946Z,63.42
2018-03-26T16:46:04.459Z,64.28
2018-03-26T16:48:31.991Z,64.05
2018-03-26T16:50:59.517Z,64.17
2018-03-26T16:53:27.039Z,64.69
2018-03-26T16:55:54.554Z,65.43
2018-03-26T16:58:22.070Z,65.71
2018-03-26T17:00:49.597Z,65.99
2018-03-26T17:03:17.117Z,66.37
2018-03-26T17:05:44.650Z,66.36
2018-03-26T17:08:12.211Z,66.73
2018-03-26T17:10:39.726Z,66.63
2018-03-26T17:13:07.253Z,66.68
2018-03-26T17:15:34.771Z,67.78
2018-03-26T17:18:02.303Z,68.64
2018-03-26T17:20:29.859Z,68.31
2018-03-26T17:22:57.390Z,68.70
2018-03-26T17:25:24.929Z,68.79
2018-03-26T17:27:52.454Z,68.23
2018-03-26T17:30:19.976Z,68.55
2018-03-26T17:32:47.498Z,69.07
2018-03-26T17:35:15.018Z,69.34
2018-03-26T17:37:42.542Z,69.11
2018-03-26T17:40:10.055Z,69.44
2018-03-26T17:42:37.573Z,70.11
2018-03-26T17:45:05.097Z,69.55
2018-03-26T17:47:32.611Z,70.17
2018-03-26T17:50:00.132Z,70.49
2018-03-26T17:52:27.659Z,70.40
2018-03-26T17:54:55.205Z,70.43
2018-03-26T17:57:22.732Z,70.78
2018-03-26T17:59:50.249Z,71.09
2018-03-26T18:02:17.765Z,71.02
2018-03-26T18:04:45.282Z,71.16
2018-03-26T18:07:12.812Z,70.91
2018-03-26T18:09:40.364Z,71.10
2018-03-26T18:12:07.878Z,71.04
2018-03-26T18:14:35.412Z,71.08
2018-03-26T18:17:02.940Z,71.90
2018-03-26T18:19:30.477Z,71.08
2018-03-26T18:21:58.001Z,71.85
2018-03-26T18:24:25.533Z,71.36
2018-03-26T18:26:53.064Z,71.81
2018-03-26T18:29:20.581Z,72.83
2018-03-26T18:31:48.094Z,72.85
2018-03-26T18:34:15.623Z,72.53
2018-03-26T18:36:43.157Z,72.51
2018-03-26T18:39:10.669Z,72.78
2018-03-26T18:41:38.185Z,73.07
2018-03-26T18:44:05.704Z,72.72
2018-03-26T18:46:33.226Z,72.65
2018-03-26T18:49:00.759Z,72.42
2018-03-26T18:51:28.282Z,73.61
2018-03-26T18:53:55.793Z,73.30
2018-03-26T18:56:23.330Z,73.75
2018-03-26T18:58:50.844Z,73.47
2018-03-26T19:01:18.381Z,73.45
2018-03-26T19:03:45.910Z,74.04
2018-03-26T19:06:13.424Z,73.90
2018-03-26T19:08:40.958Z,73.77
2018-03-26T19:11:08.473Z,73.54
2018-03-26T19:13:35.985Z,73.81
2018-03-26T19:16:03.524Z,74.21
2018-03-26T19:18:31.046Z,74.32
2018-03-26T19:20:58.562Z,74.37
2018-03-26T19:23:26.082Z,75.43
2018-03-26T19:25:53.607Z,74.95
2018-03-26T19:28:21.128Z,74.98
2018-03-26T19:30:48.655Z,75.55
2018-03-26T19:33:16.187Z,74.71
2018-03-26T19:35:43.702Z,74.78
2018-03-26T19:38:11.217Z,74.35
2018-03-26T19:40:38.734Z,74.86
2018-03-26T19:43:06.270Z,74.39
2018-03-26T19:45:33.783Z,74.68
2018-03-26T19:48:01.310Z,75.59
2018-03-26T19:50:28.836Z,75.42
2018-03-26T19:52:56.345Z,75.47
2018-03-26T19:55:23.886Z,75.44
2018-03-26T19:57:51.411Z,74.99
2018-03-26T20:00:18.944Z,75.81
2018-03-26T20:02:46.461Z,75.43
2018-03-26T20:05:13.993Z,76.50
2018-03-26T20:07:41.519Z,76.08
2018-03-26T20:10:09.042Z,76.39
2018-03-26T20:12:36.569Z,76.44
2018-03-26T20:15:04.091Z,76.59
2018-03-26T20:17:31.625Z,75.18
2018-03-26T20:19:59.148Z,75.62
2018-03-26T20:22:26.678Z,75.68
2018-03-26T20:24:54.206Z,75.48
2018-03-26T20:27:21.731Z,75.77
2018-03-26T20:29:49.268Z,74.98
2018-03-26T20:32:16.777Z,74.92
2018-03-26T20:34:44.331Z,75.60
2018-03-26T20:37:11.853Z,76.11
2018-03-26T20:39:39.403Z,75.43
2018-03-26T20:42:07.076Z,75.13
2018-03-26T20:44:34.650Z,75.13
2018-03-26T20:47:02.237Z,75.12
2018-03-26T20:49:29.760Z,75.43
2018-03-26T20:51:57.281Z,75.26
2018-03-26T20:54:24.807Z,75.34
2018-03-26T20:56:52.336Z,75.30
2018-03-26T20:59:19.858Z,75.43
2018-03-26T21:01:47.384Z,75.81
2018-03-26T21:04:14.939Z,75.19
2018-03-26T21:06:42.473Z,75.45
2018-03-26T21:09:10.007Z,75.25
2018-03-26T21:11:37.525Z,75.51
2018-03-26T21:14:05.061Z,75.62
2018-03-26T21:16:32.581Z,75.80
2018-03-26T21:19:00.102Z,75.34
2018-03-26T21:21:27.628Z,75.21
2018-03-26T21:23:55.154Z,75.29
2018-03-26T21:26:22.684Z,75.16
2018-03-26T21:28:50.210Z,74.77
2018-03-26T21:31:17.735Z,75.21
2018-03-26T21:33:45.259Z,75.38
2018-03-26T21:36:12.776Z,75.00
2018-03-26T21:38:40.301Z,75.55
2018-03-26T21:41:07.825Z,75.55
2018-03-26T21:43:35.349Z,75.39
2018-03-26T21:46:02.874Z,75.29
2018-03-26T21:48:30.406Z,75.59
2018-03-26T21:50:57.931Z,74.91
2018-03-26T21:53:25.466Z,74.63
2018-03-26T21:55:52.985Z,74.63
2018-03-26T21:58:20.520Z,75.40
2018-03-26T22:00:48.042Z,74.80
2018-03-26T22:03:15.573Z,75.05
2018-03-26T22:05:43.098Z,74.67
2018-03-26T22:08:10.644Z,74.70
2018-03-26T22:10:38.166Z,74.83
2018-03-26T22:13:05.702Z,74.88
2018-03-26T22:15:33.236Z,74.65
2018-03-26T22:18:00.773Z,75.39
2018-03-26T22:20:28.301Z,75.01
2018-03-26T22:22:55.833Z,75.60
2018-03-26T22:25:23.369Z,75.17
2018-03-26T22:27:50.898Z,74.68
2018-03-26T22:30:18.417Z,75.01
2018-03-26T22:32:45.933Z,75.11
2018-03-26T22:35:13.452Z,74.94
2018-03-26T22:37:40.995Z,74.57
2018-03-26T22:40:08.523Z,75.27
2018-03-26T22:42:36.061Z,75.04
2018-03-26T22:45:03.586Z,75.45
2018-03-26T22:47:31.118Z,74.98
2018-03-26T22:49:58.630Z,74.98
2018-03-26T22:52:26.171Z,75.70
2018-03-26T22:54:53.728Z,75.38
2018-03-26T22:57:21.245Z,75.22
2018-03-26T22:59:48.770Z,74.74
2018-03-26T23:02:16.293Z,74.87
2018-03-26T23:04:43.823Z,74.58
2018-03-26T23:07:11.377Z,74.97
2018-03-26T23:09:38.897Z,74.50
2018-03-26T23:12:06.425Z,73.93
2018-03-26T23:14:33.965Z,74.42
2018-03-26T23:17:01.487Z,74.23
2018-03-26T23:19:29.019Z,73.71
2018-03-26T23:21:56.537Z,73.75
2018-03-26T23:24:24.068Z,73.85
2018-03-26T23:26:51.597Z,73.74
2018-03-26T23:29:19.113Z,74.29
2018-03-26T23:31:46.641Z,74.76
2018-03-26T23:34:14.173Z,74.63
2018-03-26T23:36:41.693Z,74.48
2018-03-26T23:39:09.216Z,74.27
2018-03-26T23:41:36.752Z,74.36
2018-03-26T23:44:04.272Z,74.42
2018-03-26T23:46:31.792Z,73.55
2018-03-26T23:48:59.323Z,74.19
2018-03-26T23:51:26.829Z,73.96
2018-03-26T23:53:54.354Z,73.79
2018-03-26T23:56:21.889Z,73.17
2018-03-26T23:58:49.412Z,73.29
